Time;durP1;ratioP1;P1;durP2;ratioP2;P2;SDS_P1;SDS_P2;PMS_P1;PMS_P2;Temp;Humidity;BMP_temperature;BMP_pressure;BME280_temperature;BME280_humidity;BME280_pressure;Samples;Min_cycle;Max_cycle;Signal;HPM_P1;HPM_P2
2022/01/04 00:00:46;;;;;;;22.75;5.43;;;7.50;99.90;;;;;;5044169;28;20128;-67
2022/01/04 00:03:12;;;;;;;30.95;5.82;;;7.50;99.90;;;;;;5047775;28;20190;-67
2022/01/04 00:05:38;;;;;;;28.77;6.00;;;7.50;99.90;;;;;;5043016;28;20041;-68
2022/01/04 00:08:08;;;;;;;28.05;6.25;;;7.50;99.90;;;;;;5047106;28;20067;-68
2022/01/04 00:10:34;;;;;;;26.70;5.90;;;7.50;99.90;;;;;;5049488;28;20474;-67
2022/01/04 00:15:44;;;;;;;32.53;5.55;;;7.50;99.90;;;;;;5034523;28;20105;-67
2022/01/04 00:18:11;;;;;;;30.42;6.18;;;7.40;99.90;;;;;;5048617;28;20111;-67
2022/01/04 00:20:37;;;;;;;35.03;7.13;;;7.40;99.90;;;;;;5047756;28;20048;-67
2022/01/04 00:23:03;;;;;;;36.47;6.28;;;7.30;99.90;;;;;;5048926;28;20037;-68
2022/01/04 00:25:29;;;;;;;21.38;5.15;;;7.30;99.90;;;;;;5048474;28;20102;-68
2022/01/04 00:27:55;;;;;;;26.55;6.28;;;7.30;99.90;;;;;;5047233;28;20048;-68
2022/01/04 00:30:20;;;;;;;27.35;6.18;;;7.30;99.90;;;;;;5063266;28;20045;-67
2022/01/04 00:32:46;;;;;;;35.42;6.15;;;7.30;99.90;;;;;;5047891;28;20045;-68
2022/01/04 00:35:12;;;;;;;38.13;7.28;;;7.30;99.90;;;;;;5049709;28;20041;-67
2022/01/04 00:37:38;;;;;;;32.35;5.88;;;7.30;99.90;;;;;;5049549;28;20498;-68
2022/01/04 00:40:05;;;;;;;34.60;5.97;;;7.30;99.90;;;;;;5048197;28;20064;-66
2022/01/04 00:42:31;;;;;;;30.98;5.78;;;7.30;99.90;;;;;;5046118;28;20113;-68
2022/01/04 00:44:56;;;;;;;33.05;5.57;;;7.30;99.90;;;;;;5049202;28;20044;-68
2022/01/04 00:47:28;;;;;;;26.58;6.28;;;7.30;99.90;;;;;;5049014;28;20033;-67
2022/01/04 00:49:53;;;;;;;39.30;6.85;;;7.30;99.90;;;;;;5049490;28;20078;-68
2022/01/04 00:52:19;;;;;;;28.02;6.22;;;7.30;99.90;;;;;;5046488;28;20049;-67
2022/01/04 00:54:46;;;;;;;29.30;6.68;;;7.30;99.90;;;;;;5046714;28;20126;-67
2022/01/04 00:57:12;;;;;;;36.08;7.43;;;7.30;99.90;;;;;;5047363;28;20041;-67
2022/01/04 00:59:38;;;;;;;27.63;6.82;;;7.30;99.90;;;;;;5051849;28;20140;-67
2022/01/04 01:02:04;;;;;;;30.02;7.22;;;7.30;99.90;;;;;;5053486;28;20040;-67
2022/01/04 01:04:30;;;;;;;34.38;7.75;;;7.30;99.90;;;;;;5053842;28;20479;-67
2022/01/04 01:06:56;;;;;;;35.22;7.57;;;7.20;99.90;;;;;;5051884;28;20152;-69
2022/01/04 01:09:24;;;;;;;40.83;8.10;;;7.30;99.90;;;;;;5050705;28;20049;-67
2022/01/04 01:11:50;;;;;;;44.03;7.97;;;7.30;99.90;;;;;;5052447;28;20481;-67
2022/01/04 01:14:16;;;;;;;27.00;7.68;;;7.30;99.90;;;;;;5051901;28;20263;-67
2022/01/04 01:16:41;;;;;;;33.60;8.02;;;7.30;99.90;;;;;;5049268;28;20530;-67
2022/01/04 01:19:07;;;;;;;39.13;8.20;;;7.30;99.90;;;;;;5046334;28;20044;-68
2022/01/04 01:21:32;;;;;;;43.97;8.80;;;7.30;99.90;;;;;;5051251;28;20091;-68
2022/01/04 01:24:00;;;;;;;45.13;8.20;;;7.30;99.90;;;;;;5052065;28;20137;-67
2022/01/04 01:26:25;;;;;;;41.40;8.80;;;7.30;99.90;;;;;;5050647;28;20095;-68
2022/01/04 01:28:51;;;;;;;44.33;8.80;;;7.30;99.90;;;;;;5041977;28;20072;-68
2022/01/04 01:31:17;;;;;;;47.67;10.13;;;7.30;99.90;;;;;;5049712;28;20539;-67
2022/01/04 01:33:43;;;;;;;48.92;9.45;;;7.30;99.90;;;;;;5051408;28;20033;-68
2022/01/04 01:36:08;;;;;;;42.33;9.30;;;7.30;99.90;;;;;;5049866;28;20112;-67
2022/01/04 01:38:34;;;;;;;50.58;9.25;;;7.40;99.90;;;;;;5050713;28;20458;-68
2022/01/04 01:41:00;;;;;;;44.92;8.65;;;7.40;99.90;;;;;;5034312;28;20056;-68
2022/01/04 01:43:29;;;;;;;39.45;8.13;;;7.40;99.90;;;;;;5048189;28;20107;-68
2022/01/04 01:45:55;;;;;;;35.22;8.88;;;7.50;99.90;;;;;;5066329;28;20048;-68
2022/01/04 01:48:21;;;;;;;40.22;8.90;;;7.40;99.90;;;;;;5048969;28;20037;-68
2022/01/04 01:50:48;;;;;;;38.67;8.23;;;7.50;99.90;;;;;;5051899;28;20502;-67
2022/01/04 01:53:14;;;;;;;34.65;8.27;;;7.50;99.90;;;;;;5052018;28;20045;-68
2022/01/04 01:55:39;;;;;;;36.47;7.93;;;7.50;99.90;;;;;;5050410;28;20041;-68
2022/01/04 01:58:05;;;;;;;40.67;8.32;;;7.50;99.90;;;;;;5050287;28;20037;-68
2022/01/04 02:00:31;;;;;;;43.28;9.00;;;7.50;99.90;;;;;;5049878;28;20488;-69
2022/01/04 02:02:57;;;;;;;36.38;8.95;;;7.50;99.90;;;;;;5047087;28;20462;-68
2022/01/04 02:05:23;;;;;;;43.03;9.07;;;7.60;99.90;;;;;;5049116;28;20178;-68
2022/01/04 02:07:49;;;;;;;38.47;9.20;;;7.50;99.90;;;;;;5051421;28;20045;-68
2022/01/04 02:10:15;;;;;;;30.83;8.43;;;7.50;99.90;;;;;;5065994;28;20049;-67
2022/01/04 02:12:46;;;;;;;36.25;9.35;;;7.50;99.90;;;;;;5043922;28;20511;-68
2022/01/04 02:15:15;;;;;;;40.92;8.48;;;7.50;99.90;;;;;;5046852;28;20041;-66
2022/01/04 02:17:41;;;;;;;35.78;8.73;;;7.50;99.90;;;;;;5046297;28;20056;-67
2022/01/04 02:20:08;;;;;;;43.53;8.15;;;7.50;99.90;;;;;;5050812;28;20049;-67
2022/01/04 02:22:34;;;;;;;40.15;8.25;;;7.50;99.90;;;;;;5050387;28;20136;-67
2022/01/04 02:25:00;;;;;;;36.10;7.85;;;7.50;99.90;;;;;;5049821;28;20140;-68
2022/01/04 02:27:26;;;;;;;35.75;7.05;;;7.50;99.90;;;;;;5050185;28;20142;-68
2022/01/04 02:29:52;;;;;;;49.90;8.10;;;7.50;99.90;;;;;;5050969;28;20123;-69
2022/01/04 02:32:18;;;;;;;38.80;8.50;;;7.50;99.90;;;;;;5049743;28;20052;-67
2022/01/04 02:34:49;;;;;;;36.65;8.00;;;7.50;99.90;;;;;;5050664;28;20033;-68
2022/01/04 02:37:24;;;;;;;30.70;7.43;;;7.50;99.90;;;;;;5058683;28;20051;-67
2022/01/04 02:39:51;;;;;;;33.25;7.78;;;7.50;99.90;;;;;;5049176;28;20040;-67
2022/01/04 02:42:17;;;;;;;46.25;8.32;;;7.60;99.90;;;;;;5050917;28;20048;-68
2022/01/04 02:44:43;;;;;;;38.75;7.00;;;7.60;99.90;;;;;;5049881;28;20139;-68
2022/01/04 02:47:09;;;;;;;27.63;7.15;;;7.60;99.90;;;;;;5050089;28;20033;-67
2022/01/04 02:49:35;;;;;;;36.95;6.75;;;7.60;99.90;;;;;;5027842;28;20118;-68
2022/01/04 02:52:01;;;;;;;41.65;7.65;;;7.60;99.90;;;;;;5047789;28;20070;-67
2022/01/04 02:54:26;;;;;;;40.33;7.70;;;7.60;99.90;;;;;;5050576;28;20144;-68
2022/01/04 02:56:52;;;;;;;39.05;7.88;;;7.60;99.90;;;;;;5050975;28;20063;-67
2022/01/04 02:59:19;;;;;;;32.88;7.75;;;7.60;99.90;;;;;;5047572;28;20388;-67
2022/01/04 03:01:44;;;;;;;29.13;6.82;;;7.50;99.90;;;;;;5049396;28;20033;-68
2022/01/04 03:04:10;;;;;;;33.45;8.18;;;7.50;99.90;;;;;;5046220;28;20037;-68
2022/01/04 03:06:37;;;;;;;40.30;8.32;;;7.60;99.90;;;;;;5047327;28;20051;-67
2022/01/04 03:09:06;;;;;;;39.53;7.95;;;7.60;99.90;;;;;;5047629;28;20040;-67
2022/01/04 03:11:33;;;;;;;43.50;8.13;;;7.60;99.90;;;;;;5043626;28;20144;-68
2022/01/04 03:13:59;;;;;;;37.70;6.95;;;7.60;99.90;;;;;;5049889;28;20150;-68
2022/01/04 03:16:24;;;;;;;41.50;7.60;;;7.60;99.90;;;;;;5048760;28;20466;-69
2022/01/04 03:19:09;;;;;;;35.45;7.80;;;7.70;99.90;;;;;;5029246;28;20033;-68
2022/01/04 03:21:37;;;;;;;43.53;7.97;;;7.70;99.90;;;;;;5047884;28;20108;-68
2022/01/04 03:24:05;;;;;;;46.92;8.63;;;7.70;99.90;;;;;;5049141;28;20041;-68
2022/01/04 03:26:31;;;;;;;37.70;8.17;;;7.70;99.90;;;;;;5048127;28;20095;-67
2022/01/04 03:28:57;;;;;;;41.15;7.68;;;7.70;99.90;;;;;;5048086;28;20315;-67
2022/01/04 03:31:24;;;;;;;33.33;9.15;;;7.70;99.90;;;;;;5049417;28;20499;-68
2022/01/04 03:33:49;;;;;;;38.00;7.88;;;7.70;99.90;;;;;;5048367;28;20552;-68
2022/01/04 03:36:16;;;;;;;36.53;8.57;;;7.70;99.90;;;;;;5030988;28;20076;-70
2022/01/04 03:38:42;;;;;;;35.10;8.65;;;7.60;99.90;;;;;;5049005;28;20170;-67
2022/01/04 03:41:09;;;;;;;38.60;7.95;;;7.70;99.90;;;;;;5049606;28;20597;-67
2022/01/04 03:43:37;;;;;;;46.15;8.45;;;7.70;99.90;;;;;;5048942;28;20418;-67
2022/01/04 03:46:06;;;;;;;34.15;8.27;;;7.70;99.90;;;;;;5046387;28;20051;-68
2022/01/04 03:48:33;;;;;;;34.03;7.78;;;7.70;99.90;;;;;;5049531;28;20166;-68
2022/01/04 03:50:59;;;;;;;33.53;7.93;;;7.70;99.90;;;;;;5030214;28;20044;-68
2022/01/04 03:53:24;;;;;;;45.50;8.15;;;7.70;99.90;;;;;;5049353;28;20041;-67
2022/01/04 03:55:50;;;;;;;34.28;8.27;;;7.70;99.90;;;;;;5040007;28;20432;-69
2022/01/04 03:58:15;;;;;;;27.42;8.02;;;7.70;99.90;;;;;;5049871;28;20056;-68
2022/01/04 04:00:41;;;;;;;32.92;7.30;;;7.80;99.90;;;;;;5049036;28;20475;-68
2022/01/04 04:03:07;;;;;;;47.28;8.65;;;7.70;99.90;;;;;;5044183;28;20785;-68
2022/01/04 04:05:32;;;;;;;29.90;7.35;;;7.80;99.90;;;;;;5049916;28;20071;-68
2022/01/04 04:07:58;;;;;;;38.75;7.30;;;7.80;99.90;;;;;;5061615;28;20080;-68
2022/01/04 04:10:24;;;;;;;35.72;8.02;;;7.80;99.90;;;;;;5047839;28;20037;-67
2022/01/04 04:12:49;;;;;;;33.83;8.10;;;7.80;99.90;;;;;;5046826;28;20041;-68
2022/01/04 04:15:15;;;;;;;35.70;8.27;;;7.80;99.90;;;;;;5047005;28;20048;-68
2022/01/04 04:17:41;;;;;;;40.35;7.68;;;7.80;99.90;;;;;;5048058;28;20037;-68
2022/01/04 04:20:07;;;;;;;35.67;7.65;;;7.80;99.90;;;;;;5047792;28;20410;-68
2022/01/04 04:22:32;;;;;;;35.53;7.53;;;7.80;99.90;;;;;;5048684;28;20478;-69
2022/01/04 04:24:58;;;;;;;34.08;8.30;;;7.80;99.90;;;;;;5047931;28;20047;-68
2022/01/04 04:27:24;;;;;;;33.95;8.25;;;7.70;99.90;;;;;;5048376;28;20446;-68
2022/01/04 04:29:49;;;;;;;39.85;8.35;;;7.70;99.90;;;;;;5048993;28;20083;-68
2022/01/04 04:32:15;;;;;;;44.70;8.32;;;7.90;99.90;;;;;;5050014;28;20091;-67
2022/01/04 04:34:41;;;;;;;33.33;9.15;;;7.80;99.90;;;;;;5052542;28;20099;-67
2022/01/04 04:37:07;;;;;;;35.45;8.55;;;8.60;99.90;;;;;;5050740;28;20392;-68
2022/01/04 04:39:32;;;;;;;39.13;9.43;;;7.80;99.90;;;;;;5053116;28;20517;-68
2022/01/04 04:41:58;;;;;;;37.72;9.30;;;7.70;99.90;;;;;;5050174;28;20135;-68
2022/01/04 04:44:23;;;;;;;34.28;9.20;;;7.80;99.90;;;;;;5052148;28;20550;-68
2022/01/04 04:46:49;;;;;;;34.15;8.70;;;7.80;99.90;;;;;;5052392;28;20091;-68
2022/01/04 04:49:15;;;;;;;30.23;8.43;;;7.80;99.90;;;;;;5048227;28;20049;-68
2022/01/04 04:51:41;;;;;;;43.10;9.85;;;7.70;99.90;;;;;;5050725;28;20033;-68
2022/01/04 04:54:06;;;;;;;39.33;8.93;;;7.70;99.90;;;;;;5052238;28;20128;-67
2022/01/04 04:56:34;;;;;;;44.33;9.48;;;7.70;99.90;;;;;;5049909;28;20127;-68
2022/01/04 04:59:00;;;;;;;36.47;9.10;;;7.70;99.90;;;;;;5050082;28;20470;-67
2022/01/04 05:01:25;;;;;;;39.35;9.68;;;7.70;99.90;;;;;;5050332;28;20072;-67
2022/01/04 05:03:52;;;;;;;42.55;10.27;;;7.70;99.90;;;;;;5051452;28;20451;-68
2022/01/04 05:06:18;;;;;;;46.75;9.35;;;7.70;99.90;;;;;;5049813;28;20041;-68
2022/01/04 05:08:44;;;;;;;39.67;9.27;;;7.70;99.90;;;;;;5047336;28;20041;-68
2022/01/04 05:11:10;;;;;;;49.03;10.65;;;7.70;99.90;;;;;;5051651;28;20037;-68
2022/01/04 05:13:36;;;;;;;42.78;9.63;;;7.70;99.90;;;;;;5029169;28;20076;-68
2022/01/04 05:16:02;;;;;;;38.40;9.77;;;7.70;99.90;;;;;;5051223;28;20068;-67
2022/01/04 05:18:27;;;;;;;30.98;9.57;;;7.70;99.90;;;;;;5051065;28;20071;-67
2022/01/04 05:20:53;;;;;;;35.03;10.07;;;7.70;99.90;;;;;;5051654;28;20341;-68
2022/01/04 05:23:18;;;;;;;36.85;10.93;;;7.70;99.90;;;;;;5051258;28;20045;-68
2022/01/04 05:25:44;;;;;;;32.15;9.70;;;7.70;99.90;;;;;;5033408;28;20114;-67
2022/01/04 05:28:10;;;;;;;35.67;10.82;;;7.70;99.90;;;;;;5049044;28;20045;-68
2022/01/04 05:30:36;;;;;;;45.03;10.40;;;7.70;99.90;;;;;;5049990;28;20043;-68
2022/01/04 05:33:01;;;;;;;38.88;11.48;;;7.70;99.90;;;;;;5052193;28;20084;-68
2022/01/04 05:35:27;;;;;;;39.70;11.48;;;7.70;99.90;;;;;;5050122;28;20116;-68
2022/01/04 05:37:53;;;;;;;39.03;11.57;;;7.70;99.90;;;;;;5030130;28;20049;-68
2022/01/04 05:40:19;;;;;;;33.05;10.77;;;7.70;99.90;;;;;;5050903;28;20063;-68
2022/01/04 05:42:45;;;;;;;41.80;10.23;;;7.70;99.90;;;;;;5049735;28;20434;-68
2022/01/04 05:45:11;;;;;;;33.38;11.50;;;7.60;99.90;;;;;;5051209;28;20556;-67
2022/01/04 05:47:36;;;;;;;42.33;11.68;;;7.60;99.90;;;;;;5048625;28;20033;-66
2022/01/04 05:50:05;;;;;;;35.58;10.90;;;7.60;99.90;;;;;;5050022;28;20056;-68
2022/01/04 05:52:31;;;;;;;34.63;10.18;;;7.60;99.90;;;;;;5051764;28;20049;-67
2022/01/04 05:54:57;;;;;;;42.95;11.93;;;7.70;99.90;;;;;;5050041;28;20045;-67
2022/01/04 05:57:23;;;;;;;40.80;11.82;;;7.50;99.90;;;;;;5051140;28;20102;-67
2022/01/04 05:59:48;;;;;;;38.40;12.15;;;7.50;99.90;;;;;;5048783;28;20033;-67
2022/01/04 06:02:14;;;;;;;41.22;12.00;;;7.50;99.90;;;;;;5030661;28;20489;-69
2022/01/04 06:04:40;;;;;;;40.90;12.43;;;7.50;99.90;;;;;;5048998;28;20359;-69
2022/01/04 06:07:05;;;;;;;44.28;12.48;;;7.50;99.90;;;;;;5048744;28;20144;-68
2022/01/04 06:09:40;;;;;;;48.33;12.50;;;7.50;99.90;;;;;;5047989;28;20048;-68
2022/01/04 06:14:50;;;;;;;36.38;12.52;;;7.50;99.90;;;;;;5048936;28;20486;-68
2022/01/04 06:14:54;;;;;;;46.13;13.15;;;7.50;99.90;;;;;;5045946;28;20053;-68
2022/01/04 06:17:25;;;;;;;38.20;11.75;;;7.50;99.90;;;;;;5032422;28;20098;-68
2022/01/04 06:19:51;;;;;;;33.45;12.13;;;7.50;99.90;;;;;;5046823;28;20039;-67
2022/01/04 06:22:16;;;;;;;43.40;12.23;;;7.50;99.90;;;;;;5050567;28;20053;-68
2022/01/04 06:24:42;;;;;;;43.08;11.93;;;7.50;99.90;;;;;;5049388;28;20041;-67
2022/01/04 06:27:09;;;;;;;40.78;11.38;;;7.60;99.90;;;;;;5042861;28;20052;-68
2022/01/04 06:29:37;;;;;;;49.72;11.63;;;7.60;99.90;;;;;;5049464;28;20072;-68
2022/01/04 06:32:04;;;;;;;47.78;12.15;;;7.60;99.90;;;;;;5047050;28;20040;-68
2022/01/04 06:34:29;;;;;;;41.65;11.30;;;7.60;99.90;;;;;;5049467;28;20041;-69
2022/01/04 06:36:55;;;;;;;41.83;11.35;;;7.60;99.90;;;;;;5045958;28;20044;-68
2022/01/04 06:39:21;;;;;;;53.17;11.63;;;7.70;99.90;;;;;;5049823;28;20060;-69
2022/01/04 06:41:47;;;;;;;40.63;10.35;;;7.70;99.90;;;;;;5049260;28;20045;-68
2022/01/04 06:44:12;;;;;;;37.20;10.20;;;7.70;99.90;;;;;;5048814;28;20052;-69
2022/01/04 06:46:39;;;;;;;50.45;11.75;;;7.70;99.90;;;;;;5050826;28;20414;-68
2022/01/04 06:49:05;;;;;;;46.37;10.73;;;7.60;99.90;;;;;;5044875;28;20051;-68
2022/01/04 06:51:31;;;;;;;33.10;10.48;;;7.70;99.90;;;;;;5048441;28;20487;-69
2022/01/04 06:53:56;;;;;;;41.58;10.10;;;7.70;99.90;;;;;;5048977;28;20068;-69
2022/01/04 06:56:23;;;;;;;38.45;9.77;;;7.70;99.90;;;;;;5042523;28;20049;-68
2022/01/04 06:58:48;;;;;;;41.95;9.70;;;7.70;99.90;;;;;;5050595;28;20059;-68
2022/01/04 07:01:14;;;;;;;45.38;9.20;;;7.70;99.90;;;;;;5050642;28;20041;-68
2022/01/04 07:03:39;;;;;;;37.58;7.72;;;7.70;99.90;;;;;;5049879;28;20029;-68
2022/01/04 07:06:06;;;;;;;34.53;8.73;;;7.70;99.90;;;;;;5047396;28;20147;-68
2022/01/04 07:08:32;;;;;;;33.20;7.82;;;7.70;99.90;;;;;;5046555;28;20186;-67
2022/01/04 07:10:57;;;;;;;44.88;8.05;;;7.70;99.90;;;;;;5050679;28;20731;-68
2022/01/04 07:13:23;;;;;;;27.13;8.15;;;7.60;99.90;;;;;;5065006;28;20532;-68
2022/01/04 07:15:50;;;;;;;31.98;7.43;;;7.60;99.90;;;;;;5064761;28;20065;-67
2022/01/04 07:18:15;;;;;;;27.65;8.13;;;7.60;99.90;;;;;;5049742;28;20483;-68
2022/01/04 07:20:41;;;;;;;31.73;7.88;;;7.60;99.90;;;;;;5051142;28;20044;-67
2022/01/04 07:23:07;;;;;;;34.28;7.75;;;7.60;99.90;;;;;;5050323;28;20106;-68
2022/01/04 07:25:32;;;;;;;33.78;8.57;;;7.60;99.90;;;;;;5048532;28;20057;-68
2022/01/04 07:27:59;;;;;;;34.13;7.95;;;7.60;99.90;;;;;;5049901;28;20090;-67
2022/01/04 07:30:24;;;;;;;25.80;7.63;;;7.70;99.90;;;;;;5050234;28;20036;-68
2022/01/04 07:32:50;;;;;;;30.85;8.77;;;7.60;99.90;;;;;;5047421;28;20060;-68
2022/01/04 07:35:15;;;;;;;34.55;8.38;;;7.60;99.90;;;;;;5048832;28;20041;-68
2022/01/04 07:37:41;;;;;;;34.75;8.80;;;7.60;99.90;;;;;;5046596;28;20036;-68
2022/01/04 07:40:07;;;;;;;38.90;9.55;;;7.60;99.90;;;;;;5047246;28;20067;-68
2022/01/04 07:42:33;;;;;;;36.58;9.05;;;7.60;99.90;;;;;;5065110;28;20037;-69
2022/01/04 07:44:59;;;;;;;31.20;8.18;;;7.60;99.90;;;;;;5050030;28;20621;-69
2022/01/04 07:47:24;;;;;;;34.25;8.60;;;7.60;99.90;;;;;;5047948;28;20072;-68
2022/01/04 07:49:50;;;;;;;32.38;7.55;;;7.70;99.90;;;;;;5031628;28;20127;-68
2022/01/04 07:52:16;;;;;;;33.75;7.22;;;7.60;99.90;;;;;;5050064;28;20083;-68
2022/01/04 07:54:43;;;;;;;30.70;7.40;;;7.60;99.90;;;;;;5048331;28;20053;-68
2022/01/04 07:57:09;;;;;;;33.95;7.72;;;7.60;99.90;;;;;;5045272;28;20045;-68
2022/01/04 07:59:34;;;;;;;26.17;6.80;;;7.60;99.90;;;;;;5043509;28;20052;-68
2022/01/04 08:02:00;;;;;;;41.67;6.65;;;7.60;99.90;;;;;;5048632;28;20091;-68
2022/01/04 08:04:26;;;;;;;26.45;6.18;;;7.60;99.90;;;;;;5048087;28;20041;-67
2022/01/04 08:06:52;;;;;;;26.45;6.07;;;7.60;99.90;;;;;;5051640;28;20055;-68
2022/01/04 08:09:17;;;;;;;31.02;6.80;;;7.60;99.90;;;;;;5049804;28;20120;-68
2022/01/04 08:11:43;;;;;;;32.63;6.88;;;7.50;99.90;;;;;;5034373;28;20049;-69
2022/01/04 08:14:09;;;;;;;37.38;7.57;;;7.50;99.90;;;;;;5053450;28;20091;-69
2022/01/04 08:16:35;;;;;;;33.17;6.68;;;7.50;99.90;;;;;;5051776;28;20132;-69
2022/01/04 08:19:00;;;;;;;31.80;6.68;;;7.50;99.90;;;;;;5051956;28;20501;-70
2022/01/04 08:21:27;;;;;;;32.92;7.60;;;7.60;99.90;;;;;;5052235;28;20108;-68
2022/01/04 08:23:53;;;;;;;27.50;6.55;;;7.60;99.90;;;;;;5050102;28;20506;-69
2022/01/04 08:26:19;;;;;;;26.10;6.28;;;7.50;99.90;;;;;;5049257;28;20129;-68
2022/01/04 08:28:45;;;;;;;27.75;6.28;;;7.60;99.90;;;;;;5053303;28;20047;-68
2022/01/04 08:31:11;;;;;;;29.33;6.53;;;7.60;99.90;;;;;;5049790;28;20041;-68
2022/01/04 08:33:37;;;;;;;26.58;6.35;;;7.60;99.90;;;;;;5050663;28;20049;-68
2022/01/04 08:36:04;;;;;;;30.05;6.70;;;7.60;99.90;;;;;;5031238;28;20389;-68
2022/01/04 08:38:30;;;;;;;35.35;6.57;;;7.60;99.90;;;;;;5049284;28;20048;-67
2022/01/04 08:40:55;;;;;;;27.50;6.10;;;7.60;99.90;;;;;;5053660;28;20124;-67
2022/01/04 08:43:21;;;;;;;33.05;6.50;;;7.60;99.90;;;;;;5052087;28;20419;-67
2022/01/04 08:45:47;;;;;;;26.13;6.70;;;7.60;99.90;;;;;;5052377;28;20049;-67
2022/01/04 08:48:13;;;;;;;32.95;7.32;;;7.50;99.90;;;;;;5050066;28;20033;-68
2022/01/04 08:50:38;;;;;;;30.38;6.88;;;7.50;99.90;;;;;;5025609;28;20479;-68
2022/01/04 08:53:06;;;;;;;19.42;5.55;;;7.60;99.90;;;;;;5047263;28;20044;-68
2022/01/04 08:55:32;;;;;;;34.95;7.25;;;7.60;99.90;;;;;;5050744;28;20045;-69
2022/01/04 08:57:58;;;;;;;27.20;4.75;;;7.60;99.90;;;;;;5053298;28;20447;-68
2022/01/04 09:00:23;;;;;;;18.80;3.30;;;7.60;99.90;;;;;;5051407;28;20060;-69
2022/01/04 09:02:49;;;;;;;11.75;2.28;;;7.60;99.90;;;;;;5048589;28;20059;-69
2022/01/04 09:05:14;;;;;;;11.45;2.47;;;7.40;99.90;;;;;;5049085;28;20102;-69
2022/01/04 09:07:41;;;;;;;10.63;2.00;;;7.30;99.90;;;;;;5046031;28;20045;-69
2022/01/04 09:10:07;;;;;;;19.33;2.25;;;7.20;99.90;;;;;;5048702;28;20491;-69
2022/01/04 09:12:45;;;;;;;9.60;1.73;;;7.10;99.90;;;;;;5049489;28;20033;-68
2022/01/04 09:15:30;;;;;;;11.47;1.80;;;7.00;99.90;;;;;;5049155;28;20041;-69
2022/01/04 09:20:45;;;;;;;7.07;1.80;;;6.90;99.90;;;;;;5049294;28;20064;-68
2022/01/04 09:23:12;;;;;;;12.02;1.65;;;6.90;99.90;;;;;;5052171;28;20605;-68
2022/01/04 09:25:38;;;;;;;17.98;2.03;;;6.90;99.90;;;;;;5051803;28;20520;-70
2022/01/04 09:28:03;;;;;;;8.13;1.92;;;6.80;99.90;;;;;;5051843;28;20045;-69
2022/01/04 09:30:29;;;;;;;10.95;2.13;;;6.90;99.90;;;;;;5052906;28;20037;-68
2022/01/04 09:32:55;;;;;;;13.30;2.38;;;6.70;99.90;;;;;;5051423;28;20041;-69
2022/01/04 09:35:21;;;;;;;12.15;2.20;;;6.80;99.90;;;;;;5052316;28;20095;-69
2022/01/04 09:37:46;;;;;;;15.80;1.70;;;6.80;99.90;;;;;;5049135;28;20079;-68
2022/01/04 09:40:12;;;;;;;4.38;1.73;;;6.70;99.90;;;;;;5041406;28;20053;-68
2022/01/04 09:42:39;;;;;;;6.97;1.55;;;6.70;99.90;;;;;;5050246;28;20467;-68
2022/01/04 09:45:05;;;;;;;18.52;2.05;;;6.60;99.90;;;;;;5033152;28;20055;-68
2022/01/04 09:47:31;;;;;;;8.38;1.40;;;6.60;99.90;;;;;;5049746;28;20037;-69
2022/01/04 09:49:58;;;;;;;10.27;1.55;;;6.60;99.90;;;;;;5041155;28;20047;-67
2022/01/04 09:52:24;;;;;;;6.85;1.52;;;6.60;99.90;;;;;;5053357;28;20055;-68
2022/01/04 09:54:53;;;;;;;10.70;1.80;;;6.60;99.90;;;;;;5051388;28;20091;-69
2022/01/04 09:57:20;;;;;;;5.57;1.50;;;6.50;99.90;;;;;;5052692;28;20067;-68
2022/01/04 09:59:46;;;;;;;10.65;1.50;;;6.50;99.90;;;;;;5054080;28;20060;-68
2022/01/04 10:02:26;;;;;;;8.05;1.88;;;6.50;99.90;;;;;;5051288;28;20033;-67
2022/01/04 10:04:52;;;;;;;8.30;1.92;;;6.40;99.90;;;;;;5067233;28;20033;-67
2022/01/04 10:07:21;;;;;;;14.70;1.55;;;6.30;99.90;;;;;;5067770;28;20095;-68
2022/01/04 10:09:48;;;;;;;3.47;1.40;;;6.30;99.90;;;;;;5050520;28;20037;-66
2022/01/04 10:12:18;;;;;;;7.65;1.45;;;6.20;99.90;;;;;;5060286;28;20056;-67
2022/01/04 10:14:48;;;;;;;10.15;1.25;;;6.20;99.90;;;;;;5051959;28;20041;-66
2022/01/04 10:17:28;;;;;;;8.90;1.30;;;6.10;99.90;;;;;;5052777;28;20045;-67
2022/01/04 10:19:56;;;;;;;9.38;1.27;;;6.10;99.90;;;;;;5050716;28;20103;-67
2022/01/04 10:22:30;;;;;;;;;;;6.00;99.90;;;;;;5052575;28;20094;-68
2022/01/04 10:25:04;;;;;;;4.18;1.17;;;5.90;99.90;;;;;;5050484;28;19928;-67
2022/01/04 10:27:38;;;;;;;4.50;0.90;;;5.80;99.90;;;;;;5050012;28;20120;-67
2022/01/04 10:30:11;;;;;;;7.88;1.10;;;5.70;99.90;;;;;;5049344;28;20049;-67
2022/01/04 10:33:14;;;;;;;6.75;0.98;;;5.70;99.90;;;;;;5050842;28;20041;-67
2022/01/04 10:35:48;;;;;;;3.67;1.05;;;5.70;99.90;;;;;;5047188;28;20041;-68
2022/01/04 10:38:29;;;;;;;3.47;0.95;;;5.70;99.90;;;;;;5049649;28;20060;-69
2022/01/04 10:41:25;;;;;;;4.93;1.10;;;5.70;99.90;;;;;;5051133;28;20362;-68
2022/01/04 10:43:53;;;;;;;6.40;1.00;;;5.80;99.90;;;;;;5065392;28;20048;-68
2022/01/04 10:46:31;;;;;;;4.03;1.13;;;5.80;99.90;;;;;;5047167;28;20537;-68
2022/01/04 10:48:57;;;;;;;3.65;1.35;;;5.80;99.90;;;;;;5048550;28;20527;-68
2022/01/04 10:51:23;;;;;;;6.70;1.20;;;5.90;99.90;;;;;;5019105;28;20048;-68
2022/01/04 10:54:00;;;;;;;4.00;1.25;;;5.80;99.90;;;;;;5048518;28;20044;-68
2022/01/04 10:56:31;;;;;;;3.70;0.98;;;5.90;99.90;;;;;;5051028;28;20090;-68
2022/01/04 10:59:00;;;;;;;3.50;0.77;;;5.90;99.90;;;;;;5050430;28;20068;-69
2022/01/04 11:01:30;;;;;;;4.90;0.77;;;5.90;99.90;;;;;;5047703;28;20053;-68
2022/01/04 11:03:59;;;;;;;6.60;0.90;;;5.90;99.90;;;;;;5050110;28;20098;-68
2022/01/04 11:06:29;;;;;;;2.70;0.47;;;5.70;99.90;;;;;;5047743;28;20406;-69
2022/01/04 11:08:55;;;;;;;2.65;1.10;;;5.70;99.90;;;;;;5033443;28;20092;-68
2022/01/04 11:11:21;;;;;;;3.60;1.00;;;5.60;99.90;;;;;;5050223;28;20048;-68
2022/01/04 11:13:51;;;;;;;3.92;0.85;;;5.60;99.90;;;;;;5051877;28;20047;-68
2022/01/04 11:16:18;;;;;;;5.43;1.20;;;5.60;99.90;;;;;;5048549;28;20121;-68
2022/01/04 11:18:49;;;;;;;6.75;0.90;;;5.50;99.90;;;;;;5051413;28;20045;-68
2022/01/04 11:21:15;;;;;;;5.50;1.63;;;5.50;99.90;;;;;;5047307;28;20033;-68
2022/01/04 11:23:42;;;;;;;5.30;1.92;;;5.50;99.90;;;;;;5049213;28;20052;-67
2022/01/04 11:26:09;;;;;;;5.45;0.95;;;5.50;99.90;;;;;;5049186;28;20053;-67
2022/01/04 11:28:40;;;;;;;6.18;1.23;;;5.50;99.90;;;;;;5049704;28;20477;-66
2022/01/04 11:31:37;;;;;;;13.50;1.50;;;5.50;99.90;;;;;;5048547;28;20053;-67
2022/01/04 11:34:06;;;;;;;6.57;1.40;;;5.40;99.90;;;;;;5049608;28;20371;-68
2022/01/04 11:36:40;;;;;;;4.95;1.10;;;5.50;99.90;;;;;;5049578;28;20436;-69
2022/01/04 11:39:26;;;;;;;3.58;0.98;;;5.50;99.90;;;;;;5051072;28;20036;-68
2022/01/04 11:41:55;;;;;;;4.30;1.08;;;5.50;99.90;;;;;;5047884;28;20041;-68
2022/01/04 11:44:29;;;;;;;5.15;1.30;;;5.50;99.90;;;;;;5023362;28;20045;-68
2022/01/04 11:47:05;;;;;;;7.82;1.05;;;5.50;99.90;;;;;;5051392;28;20486;-68
2022/01/04 11:49:33;;;;;;;4.35;1.48;;;5.50;99.90;;;;;;5048747;28;20467;-68
2022/01/04 11:51:59;;;;;;;5.00;1.10;;;5.50;99.90;;;;;;5048003;28;20138;-67
2022/01/04 11:54:27;;;;;;;11.20;1.30;;;5.50;99.90;;;;;;5045660;28;20060;-67
2022/01/04 11:57:03;;;;;;;10.95;1.40;;;5.50;99.90;;;;;;5046060;28;20091;-67
2022/01/04 11:59:44;;;;;;;9.40;1.58;;;5.60;99.90;;;;;;5048782;28;20051;-66
2022/01/04 12:02:28;;;;;;;5.53;1.25;;;5.60;99.90;;;;;;5049261;28;20071;-66
2022/01/04 12:04:56;;;;;;;6.30;1.25;;;5.70;99.90;;;;;;5046781;28;20076;-67
2022/01/04 12:07:44;;;;;;;8.75;1.40;;;5.70;99.90;;;;;;5046853;28;20041;-68
2022/01/04 12:10:19;;;;;;;6.05;1.10;;;5.70;99.90;;;;;;5042724;28;20492;-68
2022/01/04 12:12:56;;;;;;;6.05;1.30;;;5.80;99.90;;;;;;5043467;28;20123;-68
2022/01/04 12:15:34;;;;;;;6.40;1.25;;;5.80;99.90;;;;;;5047711;28;20048;-67
2022/01/04 12:18:05;;;;;;;12.57;1.15;;;5.80;99.90;;;;;;5043342;28;20048;-67
2022/01/04 12:20:43;;;;;;;13.10;1.95;;;5.90;99.90;;;;;;5045025;28;20410;-66
2022/01/04 12:23:26;;;;;;;6.30;1.40;;;5.90;99.90;;;;;;5047649;28;20048;-67
2022/01/04 12:26:05;;;;;;;5.95;1.08;;;5.90;99.90;;;;;;5049426;28;20407;-67
2022/01/04 12:28:35;;;;;;;12.37;1.30;;;5.90;99.90;;;;;;5042787;28;20069;-67
2022/01/04 12:31:16;;;;;;;7.18;1.50;;;5.90;99.90;;;;;;5048266;28;20442;-67
2022/01/04 12:33:53;;;;;;;8.20;1.40;;;6.00;99.90;;;;;;5044964;28;20045;-68
2022/01/04 12:36:33;;;;;;;9.38;1.40;;;6.00;99.90;;;;;;5059622;28;20045;-67
2022/01/04 12:39:07;;;;;;;5.53;1.25;;;5.90;99.90;;;;;;5047299;28;20041;-68
2022/01/04 12:41:37;;;;;;;9.65;1.45;;;5.90;99.90;;;;;;5062582;28;20052;-68
2022/01/04 12:44:04;;;;;;;5.78;1.17;;;5.80;99.90;;;;;;5048065;28;20182;-67
2022/01/04 12:46:35;;;;;;;10.73;1.80;;;5.80;99.90;;;;;;5049003;28;20080;-67
2022/01/04 12:49:09;;;;;;;23.85;2.38;;;6.70;99.90;;;;;;5030337;28;20071;-67
2022/01/04 12:51:35;;;;;;;9.73;2.10;;;5.70;99.90;;;;;;5045803;28;20487;-68
2022/01/04 12:54:09;;;;;;;8.68;1.75;;;5.80;99.90;;;;;;5049800;28;20572;-67
2022/01/04 12:56:48;;;;;;;5.07;1.13;;;5.70;99.90;;;;;;5053121;28;20077;-68